Time;durP1;ratioP1;P1;durP2;ratioP2;P2;SDS_P1;SDS_P2;PMS_P1;PMS_P2;Temp;Humidity;BMP_temperature;BMP_pressure;BME280_temperature;BME280_humidity;BME280_pressure;Samples;Min_cycle;Max_cycle;Signal;HPM_P1;HPM_P2
2021/10/19 00:28:39;;;;;;;14.80;13.30;;;;;;;9.01;100.00;101346.13;21073158;27;20662;-68
2021/10/19 00:38:42;;;;;;;14.20;12.70;;;;;;;8.92;100.00;101338.50;21110538;27;20252;-68
2021/10/19 00:48:48;;;;;;;11.40;10.30;;;;;;;8.74;100.00;101349.91;21110901;27;20236;-64
2021/10/19 00:58:51;;;;;;;10.40;9.40;;;;;;;8.57;100.00;101349.72;21108939;27;20229;-67
2021/10/19 01:18:53;;;;;;;8.73;7.07;;;;;;;8.25;100.00;101341.16;21213198;27;20607;-66
2021/10/19 01:58:52;;;;;;;10.77;8.67;;;;;;;8.09;100.00;101313.41;20947272;27;20646;-63
2021/10/19 02:08:55;;;;;;;11.93;10.00;;;;;;;8.15;100.00;101313.19;20943104;28;20585;-65
2021/10/19 02:19:00;;;;;;;10.77;9.67;;;;;;;8.25;100.00;101321.66;20941298;28;20226;-67
2021/10/19 02:29:04;;;;;;;9.77;8.80;;;;;;;8.29;100.00;101325.94;20941214;28;20668;-66
2021/10/19 02:39:09;;;;;;;8.97;8.07;;;;;;;8.40;100.00;101336.19;20940745;28;20234;-67
2021/10/19 02:49:12;;;;;;;7.27;6.60;;;;;;;8.40;100.00;101344.19;20939936;28;20260;-66
2021/10/19 02:59:18;;;;;;;8.70;7.80;;;;;;;8.37;100.00;101354.94;20938484;28;20620;-65
2021/10/19 03:09:21;;;;;;;11.77;9.83;;;;;;;8.31;100.00;101356.00;20888987;28;20236;-63
2021/10/19 03:19:26;;;;;;;10.03;8.97;;;;;;;8.18;100.00;101350.28;20888696;28;21009;-65
2021/10/19 03:39:30;;;;;;;10.97;9.43;;;;;;;8.16;100.00;101335.31;21205931;27;20607;-63
2021/10/19 03:49:33;;;;;;;11.33;10.20;;;;;;;8.18;100.00;101329.03;21195572;28;20760;-64
2021/10/19 03:59:38;;;;;;;13.67;12.13;;;;;;;8.25;100.00;101327.84;21194396;28;20755;-64
2021/10/19 04:09:42;;;;;;;12.63;11.33;;;;;;;8.33;100.00;101321.41;21193220;28;20326;-61
2021/10/19 04:19:47;;;;;;;11.70;10.50;;;;;;;8.37;100.00;101315.91;21190921;28;20707;-65
2021/10/19 04:29:50;;;;;;;9.33;8.33;;;;;;;8.36;100.00;101316.81;21191531;28;20235;-65
2021/10/19 04:39:55;;;;;;;9.73;8.80;;;;;;;8.33;100.00;101327.59;21190628;28;20234;-63
2021/10/19 04:49:59;;;;;;;9.30;8.27;;;;;;;8.38;100.00;101335.38;21136480;28;20239;-62
2021/10/19 05:10:00;;;;;;;9.00;8.20;;;;;;;8.46;100.00;101354.56;21055473;27;20607;-70
2021/10/19 05:20:04;;;;;;;9.80;8.50;;;;;;;8.51;100.00;101358.78;21045651;28;20664;-69
2021/10/19 05:40:09;;;;;;;10.30;9.30;;;;;;;8.69;100.00;101364.31;21085099;27;20573;-74
2021/10/19 05:50:21;;;;;;;10.97;8.90;;;;;;;8.81;100.00;101350.53;21143697;27;21104;-70
2021/10/19 06:20:20;;;;;;;137.40;97.97;;;;;;;9.18;100.00;101361.38;21110698;27;1343215;-74
2021/10/19 06:50:20;;;;;;;13.73;11.90;;;;;;;9.76;100.00;101358.88;21072226;27;20600;-74
2021/10/19 07:00:24;;;;;;;35.53;17.53;;;;;;;10.11;100.00;101365.28;21059223;27;20679;-72
2021/10/19 07:10:29;;;;;;;48.67;25.43;;;;;;;10.34;100.00;101367.81;21058408;27;20300;-74
2021/10/19 07:30:30;;;;;;;30.97;18.17;;;;;;;11.46;100.00;101345.34;21153254;27;20630;-74
2021/10/19 07:40:34;;;;;;;37.80;20.50;;;;;;;12.00;100.00;101351.44;21143195;27;20229;-74
2021/10/19 07:50:44;;;;;;;56.03;27.33;;;;;;;12.32;100.00;101344.31;21164777;27;20217;-73
2021/10/19 08:00:48;;;;;;;26.60;16.67;;;;;;;12.75;100.00;101358.00;21226554;27;20219;-74
2021/10/19 08:10:53;;;;;;;19.17;13.30;;;;;;;13.36;100.00;101349.13;21207400;27;20232;-74
2021/10/19 08:20:57;;;;;;;11.57;10.47;;;;;;;13.78;100.00;101349.19;21206576;27;20649;-75
2021/10/19 08:31:02;;;;;;;10.97;9.93;;;;;;;14.39;100.00;101353.41;21224182;27;20228;-71
2021/10/19 08:41:06;;;;;;;11.77;10.57;;;;;;;14.92;100.00;101362.56;21170670;27;20237;-74
2021/10/19 08:51:11;;;;;;;16.40;14.83;;;;;;;15.34;100.00;101362.38;21147706;27;20317;-66
2021/10/19 09:01:15;;;;;;;11.37;10.37;;;;;;;15.97;100.00;101358.94;21165108;27;20705;-73
2021/10/19 09:11:20;;;;;;;36.07;21.60;;;;;;;16.19;100.00;101356.47;21164324;27;20236;-72
2021/10/19 09:21:28;;;;;;;16.73;14.30;;;;;;;15.87;100.00;101360.56;21163101;27;20275;-72
2021/10/19 09:31:38;;;;;;;24.70;17.77;;;;;;;15.84;100.00;101356.25;21162851;27;20231;-71
2021/10/19 09:41:44;;;;;;;34.03;21.47;;;;;;;15.87;100.00;101333.66;21161716;27;20260;-73
2021/10/19 09:51:49;;;;;;;15.10;13.50;;;;;;;15.96;100.00;101315.97;21160137;27;20702;-72
2021/10/19 10:01:52;;;;;;;11.53;10.43;;;;;;;16.54;100.00;101313.50;21160186;27;20253;-72
2021/10/19 10:11:57;;;;;;;16.23;12.70;;;;;;;17.33;100.00;101311.22;21159354;27;20222;-72
2021/10/19 10:22:15;;;;;;;11.00;9.60;;;;;;;18.12;100.00;101305.84;21074124;28;20234;-73
2021/10/19 10:32:26;;;;;;;12.10;10.63;;;;;;;18.34;100.00;101284.25;21073666;28;20316;-72
2021/10/19 10:42:36;;;;;;;10.03;9.03;;;;;;;17.87;100.00;101271.00;21072929;28;20278;-72
2021/10/19 10:52:41;;;;;;;8.40;7.60;;;;;;;17.36;100.00;101266.00;21071803;28;20309;-73
2021/10/19 11:02:51;;;;;;;7.50;6.80;;;;;;;17.75;100.00;101266.59;21053048;28;20239;-73
2021/10/19 11:13:02;;;;;;;7.67;6.97;;;;;;;18.45;100.00;101274.41;21071120;28;20231;-73
2021/10/19 11:23:05;;;;;;;8.97;8.13;;;;;;;19.37;100.00;101260.28;21145975;28;20263;-73
2021/10/19 11:33:10;;;;;;;7.07;6.40;;;;;;;19.87;100.00;101255.06;21154421;28;20217;-73
2021/10/19 11:43:14;;;;;;;8.47;7.63;;;;;;;19.53;100.00;101246.31;21153618;28;20272;-72
2021/10/19 11:53:19;;;;;;;8.47;7.57;;;;;;;18.06;100.00;101213.66;21135119;28;20217;-69
2021/10/19 12:03:29;;;;;;;8.30;7.50;;;;;;;17.18;100.00;101173.00;21152666;28;20226;-71
2021/10/19 12:13:34;;;;;;;7.40;6.73;;;;;;;17.48;100.00;101167.88;21162473;28;20216;-73
2021/10/19 12:23:38;;;;;;;7.37;6.53;;;;;;;18.32;100.00;101161.91;21167991;28;20326;-73
2021/10/19 12:33:43;;;;;;;9.57;6.80;;;;;;;18.49;100.00;101148.81;21167315;28;20563;-74
2021/10/19 12:43:48;;;;;;;5.77;5.27;;;;;;;18.33;100.00;101146.56;21166217;28;20247;-73
2021/10/19 12:53:55;;;;;;;7.00;6.27;;;;;;;18.10;100.00;101128.69;21181947;27;20317;-73
2021/10/19 13:03:59;;;;;;;5.90;5.30;;;;;;;18.21;100.00;101115.16;21164689;28;20240;-74
2021/10/19 13:14:04;;;;;;;6.03;5.47;;;;;;;18.31;100.00;101133.16;21163735;27;20768;-73
2021/10/19 13:24:08;;;;;;;6.20;5.53;;;;;;;18.11;100.00;101109.66;21162933;28;20657;-73
2021/10/19 13:34:14;;;;;;;7.50;5.97;;;;;;;17.92;100.00;101090.53;21162396;28;20235;-73
2021/10/19 13:44:17;;;;;;;7.07;6.17;;;;;;;17.55;100.00;101050.34;21167553;27;21252;-73
2021/10/19 13:54:23;;;;;;;6.83;5.90;;;;;;;17.15;100.00;101059.94;21159434;28;23071;-69
2021/10/19 14:04:27;;;;;;;5.93;5.30;;;;;;;16.91;100.00;101081.63;21159469;28;20755;-62
2021/10/19 14:14:32;;;;;;;5.20;4.70;;;;;;;16.68;100.00;101088.81;21140760;28;20269;-74
2021/10/19 14:24:36;;;;;;;5.80;5.30;;;;;;;15.97;100.00;101075.41;21157599;28;21177;-65
2021/10/19 14:34:41;;;;;;;5.67;5.17;;;;;;;15.30;100.00;101058.81;21156644;28;20225;-64
2021/10/19 14:44:45;;;;;;;8.47;5.93;;;;;;;14.86;100.00;101065.50;21156372;28;20230;-64
2021/10/19 14:54:50;;;;;;;8.13;5.83;;;;;;;14.51;100.00;101032.19;21154580;28;20607;-63
2021/10/19 15:04:55;;;;;;;9.20;5.80;;;;;;;14.01;100.00;101033.78;21154425;28;20225;-62
2021/10/19 15:15:00;;;;;;;6.57;5.23;;;;;;;13.36;100.00;101030.94;21117464;28;20226;-63
2021/10/19 15:25:05;;;;;;;8.27;6.20;;;;;;;13.01;100.00;101025.13;21069472;27;20256;-60
2021/10/19 15:35:10;;;;;;;7.87;6.60;;;;;;;12.83;100.00;101020.91;21061109;27;20217;-61
2021/10/19 15:55:12;;;;;;;8.77;7.60;;;;;;;12.41;100.00;101003.00;21089688;27;21107;-66
2021/10/19 16:05:16;;;;;;;15.53;10.93;;;;;;;12.03;100.00;101010.66;21053615;28;20229;-67
2021/10/19 16:15:21;;;;;;;57.33;30.23;;;;;;;11.71;100.00;100991.13;21056986;28;20707;-66
2021/10/19 16:25:25;;;;;;;46.10;24.63;;;;;;;11.49;100.00;100995.03;21056768;27;20226;-65
2021/10/19 16:35:32;;;;;;;19.53;15.70;;;;;;;11.28;100.00;100993.56;20972719;28;20675;-66
2021/10/19 16:45:35;;;;;;;14.40;11.40;;;;;;;11.01;100.00;100979.06;20970584;28;20261;-65
2021/10/19 16:55:40;;;;;;;15.37;12.47;;;;;;;10.78;100.00;100965.19;20970876;28;20596;-66
2021/10/19 17:05:44;;;;;;;18.97;14.17;;;;;;;10.70;100.00;100974.56;20910462;28;20338;-65
2021/10/19 17:15:50;;;;;;;20.93;15.63;;;;;;;10.79;100.00;100947.38;20972372;28;20980;-66
2021/10/19 17:25:56;;;;;;;18.70;14.50;;;;;;;10.91;100.00;100941.34;21042300;28;20226;-64
2021/10/19 17:36:02;;;;;;;15.53;12.47;;;;;;;11.01;100.00;100947.03;21003749;28;20223;-69
2021/10/19 17:46:07;;;;;;;12.77;11.47;;;;;;;11.08;100.00;100949.28;21038533;28;20294;-66
2021/10/19 17:56:12;;;;;;;13.03;10.80;;;;;;;11.17;100.00;100943.44;20978337;27;20249;-67
2021/10/19 18:06:18;;;;;;;13.20;11.60;;;;;;;11.30;100.00;100929.38;20879981;28;20226;-66
2021/10/19 18:16:24;;;;;;;13.57;12.17;;;;;;;11.35;100.00;100911.28;20852670;28;20242;-68
2021/10/19 18:26:29;;;;;;;12.40;10.53;;;;;;;11.02;100.00;100893.53;20867599;28;20661;-66
2021/10/19 18:46:29;;;;;;;17.27;11.33;;;;;;;10.96;100.00;100880.53;21011278;27;1364461;-68
2021/10/19 18:56:33;;;;;;;12.17;10.47;;;;;;;10.96;100.00;100879.69;21068329;28;20217;-66
2021/10/19 19:06:39;;;;;;;11.93;10.60;;;;;;;10.81;100.00;100857.38;21073937;28;21016;-68
2021/10/19 19:16:44;;;;;;;11.00;9.17;;;;;;;10.77;100.00;100834.47;21116430;28;20818;-67
2021/10/19 19:26:50;;;;;;;11.00;9.87;;;;;;;10.92;100.00;100836.25;21110381;28;20726;-67
2021/10/19 19:36:55;;;;;;;12.07;10.00;;;;;;;10.69;100.00;100826.03;21091475;28;20313;-69
2021/10/19 19:47:01;;;;;;;12.73;9.90;;;;;;;10.35;100.00;100824.41;21104716;28;20275;-66
2021/10/19 19:57:05;;;;;;;8.97;8.07;;;;;;;10.39;100.00;100832.13;21065498;28;20230;-65
2021/10/19 20:07:10;;;;;;;9.90;8.90;;;;;;;10.65;100.00;100821.81;21027285;28;20597;-69
2021/10/19 20:27:11;;;;;;;11.00;8.67;;;;;;;11.02;100.00;100800.06;20964623;27;20622;-67
2021/10/19 20:37:15;;;;;;;9.70;8.13;;;;;;;11.15;100.00;100806.41;20955600;28;20755;-68
2021/10/19 20:57:12;;;;;;;7.60;6.57;;;;;;;11.04;100.00;100783.94;21074353;27;20571;-67
2021/10/19 21:07:15;;;;;;;9.13;7.70;;;;;;;10.58;100.00;100769.75;21058772;27;20218;-67
2021/10/19 21:17:20;;;;;;;9.20;8.00;;;;;;;10.16;100.00;100746.28;21044660;27;20284;-66
2021/10/19 21:27:24;;;;;;;8.77;7.60;;;;;;;9.88;100.00;100723.00;20982810;27;20254;-64
2021/10/19 21:37:29;;;;;;;10.00;8.13;;;;;;;9.78;100.00;100717.28;20972831;28;20323;-64
2021/10/19 21:47:33;;;;;;;8.60;7.77;;;;;;;9.78;100.00;100700.47;20971501;28;20285;-65
2021/10/19 21:57:40;;;;;;;10.27;8.83;;;;;;;9.84;100.00;100686.78;20970616;28;20226;-64
2021/10/19 22:17:41;;;;;;;8.83;7.63;;;;;;;9.86;100.00;100683.09;21133097;27;20571;-67
2021/10/19 22:37:44;;;;;;;7.70;6.40;;;;;;;9.88;100.00;100664.34;21012474;27;20572;-67
2021/10/19 22:47:47;;;;;;;7.43;6.67;;;;;;;9.78;100.00;100641.81;21057698;27;20599;-66
2021/10/19 23:07:49;;;;;;;8.90;7.53;;;;;;;9.65;100.00;100631.84;20984693;27;20560;-68
2021/10/19 23:17:52;;;;;;;8.20;7.50;;;;;;;9.72;100.00;100627.03;21057824;28;20252;-65
2021/10/19 23:27:57;;;;;;;8.93;8.03;;;;;;;9.89;100.00;100618.09;21058300;28;20710;-67
2021/10/19 23:38:01;;;;;;;8.47;7.57;;;;;;;10.15;100.00;100625.44;20991937;28;20294;-65
2021/10/19 23:48:06;;;;;;;9.27;7.70;;;;;;;10.37;100.00;100599.28;20972346;28;20274;-67
2021/10/19 23:58:10;;;;;;;9.30;8.40;;;;;;;10.54;100.00;100610.75;20971635;28;20588;-67
